sensor_id;sensor_type;location;lat;lon;timestamp;pressure;altitude;pressure_sealevel;temperature;humidity
49723;BME280;43484;43.608;1.458;2023-06-26T00:00:29;100190.53;;;22.23;100.00
49723;BME280;43484;43.608;1.458;2023-06-26T00:02:56;100192.22;;;22.24;100.00
49723;BME280;43484;43.608;1.458;2023-06-26T00:05:23;100180.09;;;22.19;100.00
49723;BME280;43484;43.608;1.458;2023-06-26T00:07:50;100187.97;;;22.16;100.00
49723;BME280;43484;43.608;1.458;2023-06-26T00:10:17;100193.28;;;22.10;100.00
49723;BME280;43484;43.608;1.458;2023-06-26T00:12:44;100179.47;;;22.02;100.00
49723;BME280;43484;43.608;1.458;2023-06-26T00:15:10;100188.84;;;22.16;100.00
49723;BME280;43484;43.608;1.458;2023-06-26T00:17:37;100174.41;;;21.87;100.00
49723;BME280;43484;43.608;1.458;2023-06-26T00:20:04;100179.34;;;22.11;100.00
49723;BME280;43484;43.608;1.458;2023-06-26T00:22:35;100167.44;;;21.87;100.00
49723;BME280;43484;43.608;1.458;2023-06-26T00:25:01;100169.97;;;21.96;100.00
49723;BME280;43484;43.608;1.458;2023-06-26T00:27:28;100193.31;;;22.08;100.00
49723;BME280;43484;43.608;1.458;2023-06-26T00:29:55;100188.91;;;22.10;100.00
49723;BME280;43484;43.608;1.458;2023-06-26T00:32:21;100176.09;;;21.91;100.00
49723;BME280;43484;43.608;1.458;2023-06-26T00:34:48;100164.63;;;22.07;100.00
49723;BME280;43484;43.608;1.458;2023-06-26T00:37:15;100187.03;;;22.23;100.00
49723;BME280;43484;43.608;1.458;2023-06-26T00:39:41;100206.84;;;22.39;100.00
49723;BME280;43484;43.608;1.458;2023-06-26T00:42:08;100205.22;;;22.32;100.00
49723;BME280;43484;43.608;1.458;2023-06-26T00:44:35;100193.50;;;21.92;100.00
49723;BME280;43484;43.608;1.458;2023-06-26T00:47:02;100181.25;;;21.98;100.00
49723;BME280;43484;43.608;1.458;2023-06-26T00:49:28;100168.06;;;22.07;100.00
49723;BME280;43484;43.608;1.458;2023-06-26T00:51:55;100176.69;;;22.17;100.00
49723;BME280;43484;43.608;1.458;2023-06-26T00:54:22;100181.91;;;22.14;100.00
49723;BME280;43484;43.608;1.458;2023-06-26T00:56:50;100155.22;;;21.91;100.00
49723;BME280;43484;43.608;1.458;2023-06-26T00:59:16;100169.66;;;22.19;100.00
49723;BME280;43484;43.608;1.458;2023-06-26T01:01:43;100177.69;;;22.02;100.00
49723;BME280;43484;43.608;1.458;2023-06-26T01:04:10;100170.78;;;22.00;100.00
49723;BME280;43484;43.608;1.458;2023-06-26T01:06:46;100155.91;;;22.08;100.00
49723;BME280;43484;43.608;1.458;2023-06-26T01:09:19;100157.44;;;22.24;100.00
49723;BME280;43484;43.608;1.458;2023-06-26T01:11:46;100156.53;;;22.28;100.00
49723;BME280;43484;43.608;1.458;2023-06-26T01:14:13;100162.56;;;22.31;100.00
49723;BME280;43484;43.608;1.458;2023-06-26T01:16:41;100139.03;;;22.34;100.00
49723;BME280;43484;43.608;1.458;2023-06-26T01:19:24;100129.53;;;22.27;100.00
49723;BME280;43484;43.608;1.458;2023-06-26T01:22:02;100113.06;;;22.24;100.00
49723;BME280;43484;43.608;1.458;2023-06-26T01:25:12;100105.28;;;22.19;100.00
49723;BME280;43484;43.608;1.458;2023-06-26T01:27:48;100091.63;;;22.01;100.00
49723;BME280;43484;43.608;1.458;2023-06-26T01:30:16;100051.91;;;21.78;100.00
49723;BME280;43484;43.608;1.458;2023-06-26T01:32:44;100043.00;;;21.97;100.00
49723;BME280;43484;43.608;1.458;2023-06-26T01:35:13;100038.59;;;21.99;100.00
49723;BME280;43484;43.608;1.458;2023-06-26T01:37:40;100051.66;;;21.97;100.00
49723;BME280;43484;43.608;1.458;2023-06-26T01:40:07;100059.34;;;22.08;100.00
49723;BME280;43484;43.608;1.458;2023-06-26T01:42:34;100076.47;;;22.28;100.00
49723;BME280;43484;43.608;1.458;2023-06-26T01:45:12;100050.84;;;21.94;100.00
49723;BME280;43484;43.608;1.458;2023-06-26T01:47:44;100024.91;;;21.80;100.00
49723;BME280;43484;43.608;1.458;2023-06-26T01:50:18;100010.84;;;21.95;100.00
49723;BME280;43484;43.608;1.458;2023-06-26T01:58:02;99988.44;;;21.76;100.00
49723;BME280;43484;43.608;1.458;2023-06-26T02:00:30;99999.53;;;21.94;100.00
49723;BME280;43484;43.608;1.458;2023-06-26T02:02:58;100028.91;;;22.08;100.00
49723;BME280;43484;43.608;1.458;2023-06-26T02:05:25;100010.88;;;21.92;100.00
49723;BME280;43484;43.608;1.458;2023-06-26T02:07:52;100006.66;;;21.83;100.00
49723;BME280;43484;43.608;1.458;2023-06-26T02:10:18;99974.50;;;21.81;100.00
49723;BME280;43484;43.608;1.458;2023-06-26T02:12:45;99972.81;;;21.77;100.00
49723;BME280;43484;43.608;1.458;2023-06-26T02:15:12;99965.84;;;21.76;100.00
49723;BME280;43484;43.608;1.458;2023-06-26T02:17:38;99942.44;;;21.72;100.00
49723;BME280;43484;43.608;1.458;2023-06-26T02:20:05;99929.59;;;21.58;100.00
49723;BME280;43484;43.608;1.458;2023-06-26T02:22:32;99931.97;;;21.75;100.00
49723;BME280;43484;43.608;1.458;2023-06-26T02:25:00;99953.00;;;21.61;100.00
49723;BME280;43484;43.608;1.458;2023-06-26T02:27:26;99938.94;;;21.73;100.00
49723;BME280;43484;43.608;1.458;2023-06-26T02:29:53;99948.63;;;21.65;100.00
49723;BME280;43484;43.608;1.458;2023-06-26T02:32:19;99936.38;;;21.70;100.00
49723;BME280;43484;43.608;1.458;2023-06-26T02:34:46;99939.03;;;21.68;100.00
49723;BME280;43484;43.608;1.458;2023-06-26T02:37:13;99940.84;;;21.60;100.00
49723;BME280;43484;43.608;1.458;2023-06-26T02:39:39;99897.69;;;21.40;100.00
49723;BME280;43484;43.608;1.458;2023-06-26T02:42:06;99888.81;;;21.53;100.00
49723;BME280;43484;43.608;1.458;2023-06-26T02:44:33;99909.50;;;21.66;100.00
49723;BME280;43484;43.608;1.458;2023-06-26T02:46:59;99911.16;;;21.72;100.00
49723;BME280;43484;43.608;1.458;2023-06-26T02:49:26;99913.69;;;21.76;100.00
49723;BME280;43484;43.608;1.458;2023-06-26T02:51:53;99925.78;;;21.85;100.00
49723;BME280;43484;43.608;1.458;2023-06-26T02:54:19;99930.19;;;21.75;100.00
49723;BME280;43484;43.608;1.458;2023-06-26T02:56:46;99937.38;;;21.61;100.00
49723;BME280;43484;43.608;1.458;2023-06-26T02:59:14;99891.59;;;21.39;100.00
49723;BME280;43484;43.608;1.458;2023-06-26T03:01:41;99875.59;;;21.66;100.00
49723;BME280;43484;43.608;1.458;2023-06-26T03:04:07;99865.25;;;21.59;100.00
49723;BME280;43484;43.608;1.458;2023-06-26T03:06:34;99885.31;;;21.54;100.00
49723;BME280;43484;43.608;1.458;2023-06-26T03:09:01;99867.47;;;21.24;100.00
49723;BME280;43484;43.608;1.458;2023-06-26T03:11:29;99856.09;;;21.32;100.00
49723;BME280;43484;43.608;1.458;2023-06-26T03:13:56;99855.22;;;21.30;100.00
49723;BME280;43484;43.608;1.458;2023-06-26T03:16:22;99866.19;;;21.55;100.00
49723;BME280;43484;43.608;1.458;2023-06-26T03:18:49;99879.31;;;21.47;100.00
49723;BME280;43484;43.608;1.458;2023-06-26T03:21:16;99893.09;;;21.58;100.00
49723;BME280;43484;43.608;1.458;2023-06-26T03:23:43;99879.50;;;21.35;100.00
49723;BME280;43484;43.608;1.458;2023-06-26T03:26:09;99881.84;;;21.55;100.00
49723;BME280;43484;43.608;1.458;2023-06-26T03:28:36;99899.94;;;21.67;100.00
49723;BME280;43484;43.608;1.458;2023-06-26T03:31:02;99913.06;;;21.59;100.00
49723;BME280;43484;43.608;1.458;2023-06-26T03:33:29;99918.28;;;21.59;100.00
49723;BME280;43484;43.608;1.458;2023-06-26T03:35:56;99922.53;;;21.66;100.00
49723;BME280;43484;43.608;1.458;2023-06-26T03:38:23;99905.41;;;21.46;100.00
49723;BME280;43484;43.608;1.458;2023-06-26T03:40:50;99916.50;;;21.61;100.00
49723;BME280;43484;43.608;1.458;2023-06-26T03:43:17;99915.13;;;21.35;100.00
49723;BME280;43484;43.608;1.458;2023-06-26T03:45:44;99888.94;;;21.42;100.00
49723;BME280;43484;43.608;1.458;2023-06-26T03:48:10;99865.84;;;21.15;100.00
49723;BME280;43484;43.608;1.458;2023-06-26T03:50:37;99878.81;;;21.21;100.00
49723;BME280;43484;43.608;1.458;2023-06-26T03:53:04;99866.53;;;21.31;100.00
49723;BME280;43484;43.608;1.458;2023-06-26T03:55:31;99859.41;;;21.45;100.00
49723;BME280;43484;43.608;1.458;2023-06-26T03:57:58;99903.34;;;21.72;100.00
49723;BME280;43484;43.608;1.458;2023-06-26T04:00:25;99917.78;;;21.30;100.00
49723;BME280;43484;43.608;1.458;2023-06-26T04:02:51;99897.69;;;21.40;100.00
49723;BME280;43484;43.608;1.458;2023-06-26T04:05:18;99896.72;;;21.48;100.00
49723;BME280;43484;43.608;1.458;2023-06-26T04:07:45;99902.00;;;21.41;100.00
49723;BME280;43484;43.608;1.458;2023-06-26T04:10:11;99904.53;;;21.48;100.00
49723;BME280;43484;43.608;1.458;2023-06-26T04:12:38;99910.53;;;21.53;100.00
49723;BME280;43484;43.608;1.458;2023-06-26T04:15:05;99917.41;;;21.59;100.00
49723;BME280;43484;43.608;1.458;2023-06-26T04:17:32;99920.22;;;21.42;100.00
49723;BME280;43484;43.608;1.458;2023-06-26T04:19:58;99884.91;;;21.22;100.00
49723;BME280;43484;43.608;1.458;2023-06-26T04:22:25;99882.91;;;21.39;100.00
49723;BME280;43484;43.608;1.458;2023-06-26T04:24:52;99905.47;;;21.43;100.00
49723;BME280;43484;43.608;1.458;2023-06-26T04:27:18;99906.53;;;21.28;100.00
49723;BME280;43484;43.608;1.458;2023-06-26T04:29:45;99886.72;;;21.13;100.00
49723;BME280;43484;43.608;1.458;2023-06-26T04:32:12;99892.81;;;21.14;100.00
49723;BME280;43484;43.608;1.458;2023-06-26T04:34:38;99888.94;;;21.42;100.00
49723;BME280;43484;43.608;1.458;2023-06-26T04:37:08;99903.63;;;21.51;100.00
49723;BME280;43484;43.608;1.458;2023-06-26T04:39:36;99908.97;;;21.40;100.00
49723;BME280;43484;43.608;1.458;2023-06-26T04:42:05;99922.59;;;21.60;100.00
49723;BME280;43484;43.608;1.458;2023-06-26T04:44:32;99928.03;;;21.44;100.00
49723;BME280;43484;43.608;1.458;2023-06-26T04:46:59;99937.75;;;21.33;100.00
49723;BME280;43484;43.608;1.458;2023-06-26T04:49:26;99888.50;;;21.11;100.00
49723;BME280;43484;43.608;1.458;2023-06-26T04:51:55;99905.53;;;21.35;100.00
49723;BME280;43484;43.608;1.458;2023-06-26T04:54:21;99909.78;;;21.47;100.00
49723;BME280;43484;43.608;1.458;2023-06-26T04:56:49;99894.47;;;21.21;100.00
49723;BME280;43484;43.608;1.458;2023-06-26T04:59:15;99890.72;;;21.40;100.00
49723;BME280;43484;43.608;1.458;2023-06-26T05:01:42;99890.03;;;21.28;100.00
49723;BME280;43484;43.608;1.458;2023-06-26T05:04:15;99872.06;;;21.05;100.00
49723;BME280;43484;43.608;1.458;2023-06-26T05:06:42;99841.78;;;20.96;100.00
49723;BME280;43484;43.608;1.458;2023-06-26T05:09:09;99829.56;;;21.00;100.00
49723;BME280;43484;43.608;1.458;2023-06-26T05:11:37;99815.75;;;20.98;100.00
49723;BME280;43484;43.608;1.458;2023-06-26T05:14:04;99813.31;;;20.80;100.00
49723;BME280;43484;43.608;1.458;2023-06-26T05:16:33;99808.09;;;20.83;100.00
49723;BME280;43484;43.608;1.458;2023-06-26T05:19:03;99814.13;;;20.86;100.00
49723;BME280;43484;43.608;1.458;2023-06-26T05:21:30;99810.91;;;20.63;100.00
49723;BME280;43484;43.608;1.458;2023-06-26T05:23:57;99822.13;;;20.71;100.00
49723;BME280;43484;43.608;1.458;2023-06-26T05:26:25;99817.03;;;20.59;100.00
49723;BME280;43484;43.608;1.458;2023-06-26T05:28:53;99822.09;;;20.70;100.00
49723;BME280;43484;43.608;1.458;2023-06-26T05:31:20;99838.25;;;21.00;100.00
49723;BME280;43484;43.608;1.458;2023-06-26T05:33:48;99867.69;;;21.08;100.00
49723;BME280;43484;43.608;1.458;2023-06-26T05:36:16;99885.84;;;21.14;100.00
49723;BME280;43484;43.608;1.458;2023-06-26T05:38:43;99892.75;;;21.17;100.00
49723;BME280;43484;43.608;1.458;2023-06-26T05:41:10;99940.25;;;21.39;100.00
49723;BME280;43484;43.608;1.458;2023-06-26T05:43:37;99946.66;;;21.12;100.00
49723;BME280;43484;43.608;1.458;2023-06-26T05:46:03;99949.84;;;21.35;100.00
49723;BME280;43484;43.608;1.458;2023-06-26T05:48:30;99977.63;;;21.39;100.00
49723;BME280;43484;43.608;1.458;2023-06-26T05:50:57;99986.69;;;21.05;100.00
49723;BME280;43484;43.608;1.458;2023-06-26T05:53:24;99977.91;;;21.13;100.00
49723;BME280;43484;43.608;1.458;2023-06-26T05:55:51;99959.03;;;20.89;100.00
49723;BME280;43484;43.608;1.458;2023-06-26T05:58:20;99934.88;;;20.76;100.00
49723;BME280;43484;43.608;1.458;2023-06-26T06:00:47;99915.03;;;20.66;100.00
49723;BME280;43484;43.608;1.458;2023-06-26T06:03:14;99911.28;;;20.88;100.00
49723;BME280;43484;43.608;1.458;2023-06-26T06:05:41;99922.50;;;20.96;100.00
49723;BME280;43484;43.608;1.458;2023-06-26T06:08:07;99923.38;;;20.98;100.00
49723;BME280;43484;43.608;1.458;2023-06-26T06:10:34;99936.38;;;21.03;100.00
49723;BME280;43484;43.608;1.458;2023-06-26T06:13:01;99939.91;;;20.90;100.00
49723;BME280;43484;43.608;1.458;2023-06-26T06:15:28;99953.53;;;21.19;100.00
49723;BME280;43484;43.608;1.458;2023-06-26T06:17:56;99976.69;;;21.45;100.00
49723;BME280;43484;43.608;1.458;2023-06-26T06:20:23;100000.19;;;21.42;100.00
49723;BME280;43484;43.608;1.458;2023-06-26T06:22:49;100017.63;;;21.34;100.00
49723;BME280;43484;43.608;1.458;2023-06-26T06:25:16;100012.50;;;21.28;100.00
49723;BME280;43484;43.608;1.458;2023-06-26T06:27:43;100024.59;;;21.35;100.00
49723;BME280;43484;43.608;1.458;2023-06-26T06:30:11;100021.84;;;21.45;100.00
49723;BME280;43484;43.608;1.458;2023-06-26T06:32:38;100031.69;;;21.19;100.00
49723;BME280;43484;43.608;1.458;2023-06-26T06:35:05;100031.41;;;21.48;100.00
49723;BME280;43484;43.608;1.458;2023-06-26T06:37:37;100066.72;;;21.73;100.00
49723;BME280;43484;43.608;1.458;2023-06-26T06:40:09;100086.97;;;21.51;100.00
49723;BME280;43484;43.608;1.458;2023-06-26T06:42:36;100067.16;;;21.34;100.00
49723;BME280;43484;43.608;1.458;2023-06-26T06:45:03;100057.22;;;21.67;100.00
49723;BME280;43484;43.608;1.458;2023-06-26T06:47:31;100077.09;;;21.82;100.00
49723;BME280;43484;43.608;1.458;2023-06-26T06:49:59;100094.53;;;21.78;100.00
49723;BME280;43484;43.608;1.458;2023-06-26T06:52:30;100112.78;;;21.72;100.00
49723;BME280;43484;43.608;1.458;2023-06-26T06:54:57;100114.34;;;21.91;100.00
49723;BME280;43484;43.608;1.458;2023-06-26T06:57:32;100145.47;;;22.06;100.00
49723;BME280;43484;43.608;1.458;2023-06-26T07:00:10;100101.56;;;21.66;100.00
49723;BME280;43484;43.608;1.458;2023-06-26T07:02:38;100108.44;;;21.77;100.00
49723;BME280;43484;43.608;1.458;2023-06-26T07:05:06;100101.69;;;21.57;100.00
49723;BME280;43484;43.608;1.458;2023-06-26T07:07:34;100094.53;;;21.77;100.00
49723;BME280;43484;43.608;1.458;2023-06-26T07:10:06;100118.81;;;21.80;100.00
49723;BME280;43484;43.608;1.458;2023-06-26T07:12:33;100131.78;;;21.88;100.00
49723;BME280;43484;43.608;1.458;2023-06-26T07:15:00;100113.88;;;21.55;100.00
49723;BME280;43484;43.608;1.458;2023-06-26T07:17:27;100143.09;;;21.88;100.00
49723;BME280;43484;43.608;1.458;2023-06-26T07:19:54;100148.19;;;21.97;100.00
49723;BME280;43484;43.608;1.458;2023-06-26T07:22:21;100181.88;;;22.18;100.00
49723;BME280;43484;43.608;1.458;2023-06-26T07:24:48;100171.75;;;21.91;100.00
49723;BME280;43484;43.608;1.458;2023-06-26T07:27:15;100174.59;;;21.64;100.00
49723;BME280;43484;43.608;1.458;2023-06-26T07:29:42;100152.19;;;21.48;100.00
49723;BME280;43484;43.608;1.458;2023-06-26T07:32:09;100145.81;;;21.76;100.00
49723;BME280;43484;43.608;1.458;2023-06-26T07:34:39;100173.53;;;21.86;100.00
49723;BME280;43484;43.608;1.458;2023-06-26T07:37:06;100174.50;;;21.75;100.00
49723;BME280;43484;43.608;1.458;2023-06-26T07:39:33;100174.44;;;21.84;100.00
49723;BME280;43484;43.608;1.458;2023-06-26T07:42:00;100158.81;;;21.81;100.00
49723;BME280;43484;43.608;1.458;2023-06-26T07:44:26;100172.59;;;21.95;100.00
49723;BME280;43484;43.608;1.458;2023-06-26T07:46:53;100165.84;;;21.71;100.00
49723;BME280;43484;43.608;1.458;2023-06-26T07:49:20;100192.66;;;21.90;100.00
49723;BME280;43484;43.608;1.458;2023-06-26T07:51:46;100197.91;;;21.87;100.00
49723;BME280;43484;43.608;1.458;2023-06-26T07:54:13;100183.91;;;21.92;100.00
49723;BME280;43484;43.608;1.458;2023-06-26T07:56:56;100185.66;;;21.93;100.00
49723;BME280;43484;43.608;1.458;2023-06-26T07:59:24;100201.75;;;22.28;100.00
49723;BME280;43484;43.608;1.458;2023-06-26T08:01:52;100227.81;;;22.33;100.00
49723;BME280;43484;43.608;1.458;2023-06-26T08:04:20;100228.06;;;22.12;100.00
49723;BME280;43484;43.608;1.458;2023-06-26T08:06:51;100235.38;;;22.57;100.00
49723;BME280;43484;43.608;1.458;2023-06-26T08:09:20;100239.75;;;22.55;100.00
49723;BME280;43484;43.608;1.458;2023-06-26T08:11:47;100252.44;;;22.08;100.00
49723;BME280;43484;43.608;1.458;2023-06-26T08:14:14;100203.53;;;22.26;100.00
49723;BME280;43484;43.608;1.458;2023-06-26T08:16:41;100234.63;;;22.45;100.00
49723;BME280;43484;43.608;1.458;2023-06-26T08:19:08;100241.50;;;22.53;100.00
49723;BME280;43484;43.608;1.458;2023-06-26T08:21:35;100246.78;;;22.47;100.00
49723;BME280;43484;43.608;1.458;2023-06-26T08:24:02;100256.41;;;22.40;100.00
49723;BME280;43484;43.608;1.458;2023-06-26T08:26:29;100257.19;;;22.50;100.00
49723;BME280;43484;43.608;1.458;2023-06-26T08:28:55;100271.13;;;22.54;100.00
49723;BME280;43484;43.608;1.458;2023-06-26T08:31:22;100283.09;;;22.70;100.00
49723;BME280;43484;43.608;1.458;2023-06-26T08:33:49;100301.28;;;22.79;100.00
49723;BME280;43484;43.608;1.458;2023-06-26T08:36:16;100290.03;;;22.74;100.00
49723;BME280;43484;43.608;1.458;2023-06-26T08:38:42;100295.09;;;22.83;100.00
49723;BME280;43484;43.608;1.458;2023-06-26T08:41:09;100310.19;;;23.28;100.00
49723;BME280;43484;43.608;1.458;2023-06-26T08:43:36;100325.59;;;22.84;100.00
49723;BME280;43484;43.608;1.458;2023-06-26T08:46:02;100303.19;;;22.65;100.00
49723;BME280;43484;43.608;1.458;2023-06-26T08:48:32;100294.69;;;22.45;100.00
49723;BME280;43484;43.608;1.458;2023-06-26T08:51:02;100289.56;;;22.34;100.00
49723;BME280;43484;43.608;1.458;2023-06-26T08:53:59;100289.03;;;22.82;100.00
49723;BME280;43484;43.608;1.458;2023-06-26T08:56:32;100312.78;;;23.32;100.00
49723;BME280;43484;43.608;1.458;2023-06-26T08:58:59;100321.72;;;23.12;100.00
49723;BME280;43484;43.608;1.458;2023-06-26T09:01:27;100346.13;;;23.14;100.00
49723;BME280;43484;43.608;1.458;2023-06-26T09:03:54;100346.13;;;23.11;100.00
49723;BME280;43484;43.608;1.458;2023-06-26T09:06:20;100345.13;;;23.22;100.00
49723;BME280;43484;43.608;1.458;2023-06-26T09:08:47;100347.91;;;23.09;100.00
49723;BME280;43484;43.608;1.458;2023-06-26T09:11:14;100341.09;;;23.61;100.00
49723;BME280;43484;43.608;1.458;2023-06-26T09:13:42;100350.63;;;23.65;100.00
49723;BME280;43484;43.608;1.458;2023-06-26T09:16:09;100351.34;;;23.14;100.00
49723;BME280;43484;43.608;1.458;2023-06-26T09:18:36;100353.50;;;23.47;100.00
49723;BME280;43484;43.608;1.458;2023-06-26T09:21:07;100358.97;;;23.88;100.00
49723;BME280;43484;43.608;1.458;2023-06-26T09:23:34;100360.72;;;23.30;100.00
49723;BME280;43484;43.608;1.458;2023-06-26T09:26:05;100344.50;;;23.65;100.00
49723;BME280;43484;43.608;1.458;2023-06-26T09:28:33;100358.94;;;23.91;100.00
49723;BME280;43484;43.608;1.458;2023-06-26T09:31:07;100360.94;;;23.74;100.00
49723;BME280;43484;43.608;1.458;2023-06-26T09:33:36;100363.91;;;22.83;100.00
49723;BME280;43484;43.608;1.458;2023-06-26T09:36:18;100348.16;;;22.89;100.00
49723;BME280;43484;43.608;1.458;2023-06-26T09:38:45;100353.03;;;23.16;100.00
49723;BME280;43484;43.608;1.458;2023-06-26T09:41:15;100358.16;;;23.27;100.00
49723;BME280;43484;43.608;1.458;2023-06-26T09:43:49;100357.78;;;22.84;100.00
49723;BME280;43484;43.608;1.458;2023-06-26T09:46:17;100357.53;;;23.05;100.00
49723;BME280;43484;43.608;1.458;2023-06-26T09:49:01;100363.63;;;23.04;100.00
49723;BME280;43484;43.608;1.458;2023-06-26T09:51:29;100359.25;;;23.08;100.00
49723;BME280;43484;43.608;1.458;2023-06-26T09:53:57;100366.59;;;23.47;100.00
49723;BME280;43484;43.608;1.458;2023-06-26T09:56:24;100372.44;;;23.64;100.00
49723;BME280;43484;43.608;1.458;2023-06-26T09:58:52;100369.50;;;23.27;100.00
49723;BME280;43484;43.608;1.458;2023-06-26T10:01:20;100375.34;;;23.46;100.00
49723;BME280;43484;43.608;1.458;2023-06-26T10:03:47;100373.50;;;23.52;100.00
49723;BME280;43484;43.608;1.458;2023-06-26T10:06:14;100364.69;;;22.90;100.00
49723;BME280;43484;43.608;1.458;2023-06-26T10:08:44;100358.72;;;22.82;100.00
49723;BME280;43484;43.608;1.458;2023-06-26T10:11:16;100364.00;;;22.74;100.00
49723;BME280;43484;43.608;1.458;2023-06-26T10:13:45;100339.16;;;22.37;100.00
49723;BME280;43484;43.608;1.458;2023-06-26T10:16:18;100338.06;;;22.58;100.00
49723;BME280;43484;43.608;1.458;2023-06-26T10:18:52;100347.97;;;23.04;100.00
49723;BME280;43484;43.608;1.458;2023-06-26T10:21:21;100366.38;;;22.95;100.00
49723;BME280;43484;43.608;1.458;2023-06-26T10:23:51;100356.00;;;22.89;100.00
49723;BME280;43484;43.608;1.458;2023-06-26T10:26:21;100356.00;;;22.89;100.00
49723;BME280;43484;43.608;1.458;2023-06-26T10:28:49;100354.88;;;23.10;100.00
49723;BME280;43484;43.608;1.458;2023-06-26T10:31:24;100352.09;;;22.48;100.00
49723;BME280;43484;43.608;1.458;2023-06-26T10:33:52;100340.63;;;22.64;100.00
49723;BME280;43484;43.608;1.458;2023-06-26T10:36:27;100348.53;;;22.58;100.00
49723;BME280;43484;43.608;1.458;2023-06-26T10:38:56;100340.75;;;22.50;100.00
49723;BME280;43484;43.608;1.458;2023-06-26T10:41:25;100345.81;;;22.68;100.00
49723;BME280;43484;43.608;1.458;2023-06-26T10:44:07;100352.91;;;22.53;100.00
49723;BME280;43484;43.608;1.458;2023-06-26T10:49:20;100362.84;;;22.99;100.00
49723;BME280;43484;43.608;1.458;2023-06-26T10:51:51;100375.91;;;22.98;100.00
49723;BME280;43484;43.608;1.458;2023-06-26T10:54:19;100363.75;;;22.97;100.00
49723;BME280;43484;43.608;1.458;2023-06-26T10:56:50;100372.91;;;23.29;100.00
49723;BME280;43484;43.608;1.458;2023-06-26T10:59:19;100380.78;;;22.55;100.00
49723;BME280;43484;43.608;1.458;2023-06-26T11:01:53;100358.09;;;22.60;100.00
49723;BME280;43484;43.608;1.458;2023-06-26T11:04:45;100353.63;;;22.70;100.00
49723;BME280;43484;43.608;1.458;2023-06-26T11:10:08;100350.94;;;22.74;100.00
49723;BME280;43484;43.608;1.458;2023-06-26T11:12:39;100354.19;;;22.94;100.00
49723;BME280;43484;43.608;1.458;2023-06-26T11:15:09;100353.72;;;22.59;100.00
49723;BME280;43484;43.608;1.458;2023-06-26T11:17:37;100358.94;;;22.59;100.00
49723;BME280;43484;43.608;1.458;2023-06-26T11:20:08;100349.53;;;22.43;100.00
49723;BME280;43484;43.608;1.458;2023-06-26T11:22:37;100339.81;;;22.59;100.00
49723;BME280;43484;43.608;1.458;2023-06-26T11:25:05;100353.91;;;23.17;100.00
49723;BME280;43484;43.608;1.458;2023-06-26T11:29:59;100363.84;;;23.56;100.00
49723;BME280;43484;43.608;1.458;2023-06-26T11:32:26;100372.53;;;23.56;100.00
49723;BME280;43484;43.608;1.458;2023-06-26T11:34:54;100372.78;;;23.99;100.00
49723;BME280;43484;43.608;1.458;2023-06-26T11:37:21;100372.72;;;24.04;100.00
49723;BME280;43484;43.608;1.458;2023-06-26T11:39:49;100367.59;;;23.93;100.00
49723;BME280;43484;43.608;1.458;2023-06-26T11:42:15;100371.53;;;24.23;100.00
49723;BME280;43484;43.608;1.458;2023-06-26T11:44:42;100387.13;;;24.29;100.00
49723;BME280;43484;43.608;1.458;2023-06-26T11:47:20;100380.56;;;23.44;100.00
49723;BME280;43484;43.608;1.458;2023-06-26T11:49:48;100379.28;;;23.73;100.00
49723;BME280;43484;43.608;1.458;2023-06-26T11:52:16;100367.03;;;23.75;100.00
49723;BME280;43484;43.608;1.458;2023-06-26T11:54:43;100369.69;;;23.72;100.00
49723;BME280;43484;43.608;1.458;2023-06-26T11:57:14;100365.34;;;24.25;100.00
49723;BME280;43484;43.608;1.458;2023-06-26T11:59:41;100372.81;;;24.48;100.00
49723;BME280;43484;43.608;1.458;2023-06-26T12:02:09;100387.25;;;24.20;100.00
49723;BME280;43484;43.608;1.458;2023-06-26T12:04:37;100380.13;;;24.78;100.00
49723;BME280;43484;43.608;1.458;2023-06-26T12:07:06;100378.97;;;24.44;100.00
49723;BME280;43484;43.608;1.458;2023-06-26T12:09:40;100374.81;;;24.81;100.00
49723;BME280;43484;43.608;1.458;2023-06-26T12:12:08;100380.69;;;24.92;100.00
49723;BME280;43484;43.608;1.458;2023-06-26T12:14:35;100379.91;;;24.87;100.00
49723;BME280;43484;43.608;1.458;2023-06-26T12:17:09;100384.59;;;25.14;100.00
49723;BME280;43484;43.608;1.458;2023-06-26T12:19:38;100378.09;;;25.33;100.00
49723;BME280;43484;43.608;1.458;2023-06-26T12:22:06;100386.56;;;24.59;100.00
49723;BME280;43484;43.608;1.458;2023-06-26T12:24:36;100375.56;;;24.40;100.00
49723;BME280;43484;43.608;1.458;2023-06-26T12:27:11;100373.91;;;24.35;100.00
49723;BME280;43484;43.608;1.458;2023-06-26T12:29:39;100364.16;;;24.43;100.00
49723;BME280;43484;43.608;1.458;2023-06-26T12:32:10;100364.56;;;24.69;100.00
49723;BME280;43484;43.608;1.458;2023-06-26T12:34:38;100375.91;;;25.12;100.00
49723;BME280;43484;43.608;1.458;2023-06-26T12:37:07;100373.84;;;24.87;100.00
49723;BME280;43484;43.608;1.458;2023-06-26T12:39:56;100368.56;;;24.41;100.00
49723;BME280;43484;43.608;1.458;2023-06-26T12:42:28;100360.50;;;24.97;100.00
49723;BME280;43484;43.608;1.458;2023-06-26T12:44:54;100357.94;;;25.35;100.00
49723;BME280;43484;43.608;1.458;2023-06-26T12:47:25;100361.25;;;25.45;100.00
49723;BME280;43484;43.608;1.458;2023-06-26T12:49:52;100364.19;;;24.40;100.00
49723;BME280;43484;43.608;1.458;2023-06-26T12:52:20;100355.78;;;24.71;100.00
49723;BME280;43484;43.608;1.458;2023-06-26T12:54:52;100358.38;;;25.14;100.00
49723;BME280;43484;43.608;1.458;2023-06-26T12:57:20;100347.84;;;25.57;100.00
49723;BME280;43484;43.608;1.458;2023-06-26T12:59:47;100346.53;;;25.74;100.00
49723;BME280;43484;43.608;1.458;2023-06-26T13:02:14;100347.00;;;26.27;100.00